sensor_id;sensor_type;location;lat;lon;timestamp;P1;P2;P0
26185;PMS7003;20067;48.764;9.176;2022-10-20T00:00:36;32.75;28.50;18.75
26185;PMS7003;20067;48.764;9.176;2022-10-20T00:03:01;25.50;24.50;18.00
26185;PMS7003;20067;48.764;9.176;2022-10-20T00:05:27;32.75;28.75;20.00
26185;PMS7003;20067;48.764;9.176;2022-10-20T00:07:53;32.00;29.25;19.25
26185;PMS7003;20067;48.764;9.176;2022-10-20T00:10:18;30.25;30.00;20.75
26185;PMS7003;20067;48.764;9.176;2022-10-20T00:12:44;27.00;26.00;17.75
26185;PMS7003;20067;48.764;9.176;2022-10-20T00:15:09;31.25;29.25;20.75
26185;PMS7003;20067;48.764;9.176;2022-10-20T00:17:35;34.50;32.75;22.25
26185;PMS7003;20067;48.764;9.176;2022-10-20T00:20:00;35.50;29.00;20.50
26185;PMS7003;20067;48.764;9.176;2022-10-20T00:22:26;31.00;27.00;19.25
26185;PMS7003;20067;48.764;9.176;2022-10-20T00:24:52;30.50;29.25;20.25
26185;PMS7003;20067;48.764;9.176;2022-10-20T00:27:17;27.50;25.75;18.50
26185;PMS7003;20067;48.764;9.176;2022-10-20T00:29:43;33.25;27.25;19.25
26185;PMS7003;20067;48.764;9.176;2022-10-20T00:32:08;29.00;28.00;20.00
26185;PMS7003;20067;48.764;9.176;2022-10-20T00:34:34;31.75;29.50;21.75
26185;PMS7003;20067;48.764;9.176;2022-10-20T00:36:59;31.75;28.00;19.75
26185;PMS7003;20067;48.764;9.176;2022-10-20T00:39:25;36.00;32.75;24.25
26185;PMS7003;20067;48.764;9.176;2022-10-20T00:41:51;27.75;26.00;20.00
26185;PMS7003;20067;48.764;9.176;2022-10-20T00:47:14;32.00;31.00;22.00
26185;PMS7003;20067;48.764;9.176;2022-10-20T00:49:46;34.75;33.25;23.00
26185;PMS7003;20067;48.764;9.176;2022-10-20T00:52:13;33.50;31.75;22.00
26185;PMS7003;20067;48.764;9.176;2022-10-20T00:54:42;30.25;29.25;20.00
26185;PMS7003;20067;48.764;9.176;2022-10-20T00:57:08;26.50;25.75;19.00
26185;PMS7003;20067;48.764;9.176;2022-10-20T00:59:34;28.00;25.75;19.75
26185;PMS7003;20067;48.764;9.176;2022-10-20T01:02:01;32.50;30.00;22.50
26185;PMS7003;20067;48.764;9.176;2022-10-20T01:04:30;25.50;24.75;19.50
26185;PMS7003;20067;48.764;9.176;2022-10-20T01:06:57;31.00;28.50;20.00
26185;PMS7003;20067;48.764;9.176;2022-10-20T01:09:26;30.00;29.00;20.25
26185;PMS7003;20067;48.764;9.176;2022-10-20T01:28:57;31.75;31.50;22.00
26185;PMS7003;20067;48.764;9.176;2022-10-20T01:34:09;31.00;27.75;19.75
26185;PMS7003;20067;48.764;9.176;2022-10-20T01:36:46;33.75;32.75;22.50
26185;PMS7003;20067;48.764;9.176;2022-10-20T01:39:22;30.75;27.75;18.75
26185;PMS7003;20067;48.764;9.176;2022-10-20T01:41:58;30.25;27.50;19.00
26185;PMS7003;20067;48.764;9.176;2022-10-20T01:44:27;32.25;29.25;19.50
26185;PMS7003;20067;48.764;9.176;2022-10-20T01:46:56;30.00;27.00;17.75
26185;PMS7003;20067;48.764;9.176;2022-10-20T01:49:23;28.25;27.00;17.50
26185;PMS7003;20067;48.764;9.176;2022-10-20T01:51:50;27.25;25.00;18.50
26185;PMS7003;20067;48.764;9.176;2022-10-20T01:54:20;30.75;28.00;19.25
26185;PMS7003;20067;48.764;9.176;2022-10-20T02:02:02;36.25;30.00;22.50
26185;PMS7003;20067;48.764;9.176;2022-10-20T02:07:33;35.50;32.50;23.75
26185;PMS7003;20067;48.764;9.176;2022-10-20T02:10:02;32.50;30.00;22.25
26185;PMS7003;20067;48.764;9.176;2022-10-20T02:12:37;33.25;28.75;19.50
26185;PMS7003;20067;48.764;9.176;2022-10-20T02:15:08;30.00;29.25;20.75
26185;PMS7003;20067;48.764;9.176;2022-10-20T02:17:38;38.25;34.00;22.25
26185;PMS7003;20067;48.764;9.176;2022-10-20T02:20:06;35.25;29.50;19.00
26185;PMS7003;20067;48.764;9.176;2022-10-20T02:22:34;31.25;28.75;20.00
26185;PMS7003;20067;48.764;9.176;2022-10-20T02:25:00;32.00;31.75;22.25
26185;PMS7003;20067;48.764;9.176;2022-10-20T02:27:29;34.50;29.25;21.00
26185;PMS7003;20067;48.764;9.176;2022-10-20T02:32:32;34.00;33.75;24.75
26185;PMS7003;20067;48.764;9.176;2022-10-20T02:35:04;37.75;34.75;25.50
26185;PMS7003;20067;48.764;9.176;2022-10-20T02:37:33;42.00;36.75;26.25
26185;PMS7003;20067;48.764;9.176;2022-10-20T02:39:59;29.75;29.00;21.25
26185;PMS7003;20067;48.764;9.176;2022-10-20T02:42:25;38.50;35.75;26.50
26185;PMS7003;20067;48.764;9.176;2022-10-20T02:44:50;39.00;33.75;23.75
26185;PMS7003;20067;48.764;9.176;2022-10-20T02:47:16;37.50;35.00;24.00
26185;PMS7003;20067;48.764;9.176;2022-10-20T02:49:44;35.75;34.25;25.25
26185;PMS7003;20067;48.764;9.176;2022-10-20T02:52:10;38.25;37.00;26.00
26185;PMS7003;20067;48.764;9.176;2022-10-20T02:54:36;38.75;37.00;26.00
26185;PMS7003;20067;48.764;9.176;2022-10-20T02:57:01;44.25;37.50;22.25
26185;PMS7003;20067;48.764;9.176;2022-10-20T02:59:27;42.00;38.00;24.75
26185;PMS7003;20067;48.764;9.176;2022-10-20T03:01:53;39.50;39.00;27.75
26185;PMS7003;20067;48.764;9.176;2022-10-20T03:04:18;42.75;39.75;27.75
26185;PMS7003;20067;48.764;9.176;2022-10-20T03:06:44;39.50;37.00;26.75
26185;PMS7003;20067;48.764;9.176;2022-10-20T03:09:10;45.50;40.50;28.00
26185;PMS7003;20067;48.764;9.176;2022-10-20T03:11:35;40.50;37.75;28.75
26185;PMS7003;20067;48.764;9.176;2022-10-20T03:14:01;41.75;37.75;27.00
26185;PMS7003;20067;48.764;9.176;2022-10-20T03:16:27;38.50;36.00;26.75
26185;PMS7003;20067;48.764;9.176;2022-10-20T03:18:53;34.00;31.25;22.00
26185;PMS7003;20067;48.764;9.176;2022-10-20T03:21:18;35.25;32.00;21.50
26185;PMS7003;20067;48.764;9.176;2022-10-20T03:23:44;34.75;32.25;22.75
26185;PMS7003;20067;48.764;9.176;2022-10-20T03:26:10;36.25;35.75;25.75
26185;PMS7003;20067;48.764;9.176;2022-10-20T03:28:37;37.50;34.25;22.75
26185;PMS7003;20067;48.764;9.176;2022-10-20T03:31:03;38.00;34.50;22.75
26185;PMS7003;20067;48.764;9.176;2022-10-20T03:33:29;33.25;32.00;23.00
26185;PMS7003;20067;48.764;9.176;2022-10-20T03:35:55;29.75;29.75;20.75
26185;PMS7003;20067;48.764;9.176;2022-10-20T03:38:21;31.50;29.25;19.50
26185;PMS7003;20067;48.764;9.176;2022-10-20T03:40:47;33.25;29.75;21.25
26185;PMS7003;20067;48.764;9.176;2022-10-20T03:43:13;33.25;30.00;19.00
26185;PMS7003;20067;48.764;9.176;2022-10-20T03:45:41;30.00;28.25;16.75
26185;PMS7003;20067;48.764;9.176;2022-10-20T03:48:08;35.50;31.75;20.50
26185;PMS7003;20067;48.764;9.176;2022-10-20T03:50:39;32.25;31.00;21.25
26185;PMS7003;20067;48.764;9.176;2022-10-20T03:53:06;33.00;30.50;19.00
26185;PMS7003;20067;48.764;9.176;2022-10-20T03:55:32;31.00;29.25;19.00
26185;PMS7003;20067;48.764;9.176;2022-10-20T03:57:57;36.25;30.25;18.25
26185;PMS7003;20067;48.764;9.176;2022-10-20T04:00:23;31.00;29.75;18.25
26185;PMS7003;20067;48.764;9.176;2022-10-20T04:02:49;35.50;30.50;19.25
26185;PMS7003;20067;48.764;9.176;2022-10-20T04:05:16;38.25;31.25;18.50
26185;PMS7003;20067;48.764;9.176;2022-10-20T04:07:44;41.75;37.00;23.75
26185;PMS7003;20067;48.764;9.176;2022-10-20T04:10:11;35.75;34.75;20.00
26185;PMS7003;20067;48.764;9.176;2022-10-20T04:12:38;36.50;32.25;22.25
26185;PMS7003;20067;48.764;9.176;2022-10-20T04:15:04;42.00;38.75;25.25
26185;PMS7003;20067;48.764;9.176;2022-10-20T04:17:31;39.50;36.75;27.25
26185;PMS7003;20067;48.764;9.176;2022-10-20T04:19:57;37.50;31.75;21.50
26185;PMS7003;20067;48.764;9.176;2022-10-20T04:22:23;38.25;35.00;23.25
26185;PMS7003;20067;48.764;9.176;2022-10-20T04:24:48;35.00;34.25;22.50
26185;PMS7003;20067;48.764;9.176;2022-10-20T04:27:14;36.00;32.75;24.75
26185;PMS7003;20067;48.764;9.176;2022-10-20T04:29:40;34.75;31.75;20.50
26185;PMS7003;20067;48.764;9.176;2022-10-20T04:32:05;35.50;29.25;20.25
26185;PMS7003;20067;48.764;9.176;2022-10-20T04:34:31;32.25;27.50;19.00
26185;PMS7003;20067;48.764;9.176;2022-10-20T04:36:57;29.00;28.25;20.25
26185;PMS7003;20067;48.764;9.176;2022-10-20T04:39:23;30.50;28.25;21.50
26185;PMS7003;20067;48.764;9.176;2022-10-20T04:41:49;29.50;27.75;20.50
26185;PMS7003;20067;48.764;9.176;2022-10-20T04:44:15;37.50;31.25;21.00
26185;PMS7003;20067;48.764;9.176;2022-10-20T04:46:41;37.00;33.75;23.00
26185;PMS7003;20067;48.764;9.176;2022-10-20T04:49:07;30.75;29.00;19.00
26185;PMS7003;20067;48.764;9.176;2022-10-20T04:51:32;34.75;31.25;20.75
26185;PMS7003;20067;48.764;9.176;2022-10-20T04:53:58;33.25;30.75;20.25
26185;PMS7003;20067;48.764;9.176;2022-10-20T04:56:23;30.25;27.75;18.25
26185;PMS7003;20067;48.764;9.176;2022-10-20T04:58:53;34.25;31.00;20.00
26185;PMS7003;20067;48.764;9.176;2022-10-20T05:01:21;32.50;30.00;20.25
26185;PMS7003;20067;48.764;9.176;2022-10-20T05:03:48;28.50;26.25;18.25
26185;PMS7003;20067;48.764;9.176;2022-10-20T05:06:14;31.75;26.75;18.25
26185;PMS7003;20067;48.764;9.176;2022-10-20T05:08:46;31.25;29.00;19.50
26185;PMS7003;20067;48.764;9.176;2022-10-20T05:11:14;32.50;30.50;20.00
26185;PMS7003;20067;48.764;9.176;2022-10-20T05:13:41;29.75;29.50;20.00
26185;PMS7003;20067;48.764;9.176;2022-10-20T05:16:10;32.50;30.00;18.00
26185;PMS7003;20067;48.764;9.176;2022-10-20T05:18:36;39.50;29.00;18.75
26185;PMS7003;20067;48.764;9.176;2022-10-20T05:23:32;32.25;30.25;21.50
26185;PMS7003;20067;48.764;9.176;2022-10-20T05:26:00;32.50;27.75;20.00
26185;PMS7003;20067;48.764;9.176;2022-10-20T05:28:27;31.25;27.50;21.75
26185;PMS7003;20067;48.764;9.176;2022-10-20T05:30:53;34.25;29.50;20.00
26185;PMS7003;20067;48.764;9.176;2022-10-20T05:33:19;39.25;33.75;21.75
26185;PMS7003;20067;48.764;9.176;2022-10-20T05:35:44;41.75;34.50;21.75
26185;PMS7003;20067;48.764;9.176;2022-10-20T05:38:10;34.00;31.50;20.25
26185;PMS7003;20067;48.764;9.176;2022-10-20T05:40:36;35.75;30.25;21.00
26185;PMS7003;20067;48.764;9.176;2022-10-20T05:43:01;36.00;32.25;20.75
26185;PMS7003;20067;48.764;9.176;2022-10-20T05:45:27;36.00;32.50;22.25
26185;PMS7003;20067;48.764;9.176;2022-10-20T05:47:52;40.00;30.75;21.00
26185;PMS7003;20067;48.764;9.176;2022-10-20T05:50:18;43.50;41.00;29.00
26185;PMS7003;20067;48.764;9.176;2022-10-20T05:52:44;45.50;38.50;26.75
26185;PMS7003;20067;48.764;9.176;2022-10-20T05:55:09;43.25;37.25;29.00
26185;PMS7003;20067;48.764;9.176;2022-10-20T05:57:35;41.25;38.00;28.50
26185;PMS7003;20067;48.764;9.176;2022-10-20T06:00:00;40.25;35.75;27.50
26185;PMS7003;20067;48.764;9.176;2022-10-20T06:02:26;40.25;36.75;28.00
26185;PMS7003;20067;48.764;9.176;2022-10-20T06:04:52;40.25;32.25;25.00
26185;PMS7003;20067;48.764;9.176;2022-10-20T06:07:17;35.00;34.00;24.75
26185;PMS7003;20067;48.764;9.176;2022-10-20T06:09:43;44.75;40.25;27.75
26185;PMS7003;20067;48.764;9.176;2022-10-20T06:12:08;40.75;38.50;28.00
26185;PMS7003;20067;48.764;9.176;2022-10-20T06:14:34;41.50;37.25;25.00
26185;PMS7003;20067;48.764;9.176;2022-10-20T06:16:59;40.25;35.00;22.25
26185;PMS7003;20067;48.764;9.176;2022-10-20T06:19:25;35.50;33.50;24.25
26185;PMS7003;20067;48.764;9.176;2022-10-20T06:21:51;36.00;31.50;20.00
26185;PMS7003;20067;48.764;9.176;2022-10-20T06:24:17;36.00;32.50;21.25
26185;PMS7003;20067;48.764;9.176;2022-10-20T06:26:44;37.00;32.50;24.50
26185;PMS7003;20067;48.764;9.176;2022-10-20T06:29:11;40.00;37.00;23.25
26185;PMS7003;20067;48.764;9.176;2022-10-20T06:31:45;41.00;36.75;24.75
26185;PMS7003;20067;48.764;9.176;2022-10-20T06:34:14;36.50;34.00;23.00
26185;PMS7003;20067;48.764;9.176;2022-10-20T06:36:41;32.75;32.75;23.25
26185;PMS7003;20067;48.764;9.176;2022-10-20T06:39:10;35.75;33.25;22.25
26185;PMS7003;20067;48.764;9.176;2022-10-20T06:41:37;39.75;37.00;24.50
26185;PMS7003;20067;48.764;9.176;2022-10-20T06:44:03;42.25;35.50;23.00
26185;PMS7003;20067;48.764;9.176;2022-10-20T06:46:30;47.75;41.00;23.00
26185;PMS7003;20067;48.764;9.176;2022-10-20T06:49:02;39.00;37.25;25.25
26185;PMS7003;20067;48.764;9.176;2022-10-20T06:51:29;43.25;43.00;27.50
26185;PMS7003;20067;48.764;9.176;2022-10-20T06:53:55;39.50;36.75;23.75
26185;PMS7003;20067;48.764;9.176;2022-10-20T06:56:21;37.75;32.00;22.25
26185;PMS7003;20067;48.764;9.176;2022-10-20T06:58:49;38.75;36.00;23.50
26185;PMS7003;20067;48.764;9.176;2022-10-20T07:01:29;39.00;35.00;24.25
26185;PMS7003;20067;48.764;9.176;2022-10-20T07:04:04;37.50;33.00;22.25
26185;PMS7003;20067;48.764;9.176;2022-10-20T07:06:38;33.50;30.75;20.50
26185;PMS7003;20067;48.764;9.176;2022-10-20T07:09:06;39.25;35.25;22.50
26185;PMS7003;20067;48.764;9.176;2022-10-20T07:11:35;37.75;34.50;24.00
26185;PMS7003;20067;48.764;9.176;2022-10-20T07:14:01;38.50;37.50;27.00
26185;PMS7003;20067;48.764;9.176;2022-10-20T07:16:29;46.00;35.75;23.50
26185;PMS7003;20067;48.764;9.176;2022-10-20T07:18:57;39.75;35.75;24.25
26185;PMS7003;20067;48.764;9.176;2022-10-20T07:21:24;42.50;35.00;23.25
26185;PMS7003;20067;48.764;9.176;2022-10-20T07:23:53;36.50;34.50;23.00
26185;PMS7003;20067;48.764;9.176;2022-10-20T07:26:23;38.00;33.00;21.50
26185;PMS7003;20067;48.764;9.176;2022-10-20T07:28:51;28.50;26.00;18.00
26185;PMS7003;20067;48.764;9.176;2022-10-20T07:31:20;35.75;33.25;20.75
26185;PMS7003;20067;48.764;9.176;2022-10-20T07:33:50;35.50;29.50;17.00
26185;PMS7003;20067;48.764;9.176;2022-10-20T07:36:18;33.00;28.50;18.50
26185;PMS7003;20067;48.764;9.176;2022-10-20T07:38:46;28.75;24.25;15.00
26185;PMS7003;20067;48.764;9.176;2022-10-20T07:41:12;29.00;22.50;14.25
26185;PMS7003;20067;48.764;9.176;2022-10-20T07:43:39;26.50;26.00;15.75
26185;PMS7003;20067;48.764;9.176;2022-10-20T07:46:06;27.25;22.25;12.50
26185;PMS7003;20067;48.764;9.176;2022-10-20T07:48:32;24.25;23.00;16.00
26185;PMS7003;20067;48.764;9.176;2022-10-20T07:53:48;30.25;27.00;13.50
26185;PMS7003;20067;48.764;9.176;2022-10-20T07:56:14;21.00;20.75;12.00
26185;PMS7003;20067;48.764;9.176;2022-10-20T07:58:40;26.75;22.00;13.00
26185;PMS7003;20067;48.764;9.176;2022-10-20T08:01:07;22.50;19.75;12.00
26185;PMS7003;20067;48.764;9.176;2022-10-20T08:03:33;22.00;20.75;12.75
26185;PMS7003;20067;48.764;9.176;2022-10-20T08:05:58;20.00;18.75;12.00
26185;PMS7003;20067;48.764;9.176;2022-10-20T08:08:24;23.50;20.25;11.25
26185;PMS7003;20067;48.764;9.176;2022-10-20T08:10:50;19.00;17.25;10.00
26185;PMS7003;20067;48.764;9.176;2022-10-20T08:13:16;18.50;17.00;9.00
26185;PMS7003;20067;48.764;9.176;2022-10-20T08:15:41;21.25;19.00;10.00
26185;PMS7003;20067;48.764;9.176;2022-10-20T08:18:07;22.50;20.00;11.00
26185;PMS7003;20067;48.764;9.176;2022-10-20T08:20:33;20.00;17.00;10.50
26185;PMS7003;20067;48.764;9.176;2022-10-20T08:22:59;22.50;19.00;11.00
26185;PMS7003;20067;48.764;9.176;2022-10-20T08:25:24;22.00;21.00;13.00
26185;PMS7003;20067;48.764;9.176;2022-10-20T08:27:50;23.25;20.50;12.50
26185;PMS7003;20067;48.764;9.176;2022-10-20T08:30:16;22.25;17.25;10.25
26185;PMS7003;20067;48.764;9.176;2022-10-20T08:32:41;24.75;21.00;11.00
26185;PMS7003;20067;48.764;9.176;2022-10-20T08:35:07;23.50;19.75;11.75
26185;PMS7003;20067;48.764;9.176;2022-10-20T08:37:33;19.00;17.00;9.00
26185;PMS7003;20067;48.764;9.176;2022-10-20T08:40:00;25.50;19.75;12.00
26185;PMS7003;20067;48.764;9.176;2022-10-20T08:42:29;18.25;16.00;10.00
26185;PMS7003;20067;48.764;9.176;2022-10-20T08:45:01;14.75;14.00;8.25
26185;PMS7003;20067;48.764;9.176;2022-10-20T08:47:31;19.50;17.00;9.00
26185;PMS7003;20067;48.764;9.176;2022-10-20T08:50:00;20.00;18.00;10.00
26185;PMS7003;20067;48.764;9.176;2022-10-20T08:52:28;19.25;18.00;10.50
26185;PMS7003;20067;48.764;9.176;2022-10-20T08:54:55;18.25;15.00;10.00
26185;PMS7003;20067;48.764;9.176;2022-10-20T08:57:26;16.75;15.75;9.50
26185;PMS7003;20067;48.764;9.176;2022-10-20T08:59:58;15.00;14.75;8.75
26185;PMS7003;20067;48.764;9.176;2022-10-20T09:02:36;15.00;14.25;8.75
26185;PMS7003;20067;48.764;9.176;2022-10-20T09:05:02;15.75;13.50;9.25
26185;PMS7003;20067;48.764;9.176;2022-10-20T09:07:30;14.00;13.50;8.00
26185;PMS7003;20067;48.764;9.176;2022-10-20T09:10:03;12.50;12.50;7.25
26185;PMS7003;20067;48.764;9.176;2022-10-20T09:12:43;14.50;13.00;7.00
26185;PMS7003;20067;48.764;9.176;2022-10-20T09:15:10;13.25;13.25;7.50
26185;PMS7003;20067;48.764;9.176;2022-10-20T09:17:49;15.00;14.00;8.00
26185;PMS7003;20067;48.764;9.176;2022-10-20T09:20:28;15.00;13.00;7.50
26185;PMS7003;20067;48.764;9.176;2022-10-20T09:22:57;14.75;14.50;8.75
26185;PMS7003;20067;48.764;9.176;2022-10-20T09:25:24;13.25;12.75;8.50
26185;PMS7003;20067;48.764;9.176;2022-10-20T09:27:51;14.00;13.50;8.00
26185;PMS7003;20067;48.764;9.176;2022-10-20T09:32:45;18.50;15.25;10.75
26185;PMS7003;20067;48.764;9.176;2022-10-20T09:35:16;13.75;12.25;7.00
26185;PMS7003;20067;48.764;9.176;2022-10-20T09:37:52;18.25;17.00;10.00
26185;PMS7003;20067;48.764;9.176;2022-10-20T09:40:23;15.00;15.00;7.75
26185;PMS7003;20067;48.764;9.176;2022-10-20T09:43:09;17.00;15.75;8.25
26185;PMS7003;20067;48.764;9.176;2022-10-20T09:45:48;16.00;16.00;10.25
26185;PMS7003;20067;48.764;9.176;2022-10-20T09:50:46;17.75;14.50;8.50
26185;PMS7003;20067;48.764;9.176;2022-10-20T09:53:19;14.75;14.75;8.00
26185;PMS7003;20067;48.764;9.176;2022-10-20T09:55:48;17.00;17.00;11.00
26185;PMS7003;20067;48.764;9.176;2022-10-20T09:58:17;16.50;15.25;8.00
26185;PMS7003;20067;48.764;9.176;2022-10-20T10:00:59;22.25;20.25;10.75
26185;PMS7003;20067;48.764;9.176;2022-10-20T10:03:28;18.75;18.00;10.00
26185;PMS7003;20067;48.764;9.176;2022-10-20T10:12:16;20.50;18.25;9.75
26185;PMS7003;20067;48.764;9.176;2022-10-20T10:15:03;20.25;18.75;12.75
26185;PMS7003;20067;48.764;9.176;2022-10-20T10:20:06;20.00;18.50;12.50
26185;PMS7003;20067;48.764;9.176;2022-10-20T10:22:35;20.25;17.50;10.00
26185;PMS7003;20067;48.764;9.176;2022-10-20T10:25:01;18.50;15.00;9.25
26185;PMS7003;20067;48.764;9.176;2022-10-20T10:27:32;20.50;17.00;9.00
26185;PMS7003;20067;48.764;9.176;2022-10-20T10:32:44;18.75;17.25;10.00
26185;PMS7003;20067;48.764;9.176;2022-10-20T10:35:18;19.00;18.00;11.00
26185;PMS7003;20067;48.764;9.176;2022-10-20T10:37:46;20.25;19.00;12.25
26185;PMS7003;20067;48.764;9.176;2022-10-20T10:40:19;22.25;19.00;11.00
26185;PMS7003;20067;48.764;9.176;2022-10-20T10:46:15;21.25;21.00;13.50
26185;PMS7003;20067;48.764;9.176;2022-10-20T10:49:02;21.00;20.75;12.75
26185;PMS7003;20067;48.764;9.176;2022-10-20T10:57:25;22.00;18.50;10.00
26185;PMS7003;20067;48.764;9.176;2022-10-20T11:00:18;18.75;17.00;10.00
26185;PMS7003;20067;48.764;9.176;2022-10-20T11:03:07;20.00;17.50;10.50
26185;PMS7003;20067;48.764;9.176;2022-10-20T11:06:00;20.00;15.25;9.00
26185;PMS7003;20067;48.764;9.176;2022-10-20T11:19:37;16.25;14.00;7.00
26185;PMS7003;20067;48.764;9.176;2022-10-20T11:27:56;17.75;14.00;9.00
26185;PMS7003;20067;48.764;9.176;2022-10-20T11:30:23;19.00;17.25;9.25
26185;PMS7003;20067;48.764;9.176;2022-10-20T11:33:04;21.75;18.50;11.00
26185;PMS7003;20067;48.764;9.176;2022-10-20T11:35:59;19.00;18.75;10.00
26185;PMS7003;20067;48.764;9.176;2022-10-20T11:44:03;16.25;15.00;9.50
26185;PMS7003;20067;48.764;9.176;2022-10-20T11:46:47;15.25;13.50;7.50
26185;PMS7003;20067;48.764;9.176;2022-10-20T11:49:17;11.25;11.25;6.50
26185;PMS7003;20067;48.764;9.176;2022-10-20T12:06:40;16.00;16.00;8.00
26185;PMS7003;20067;48.764;9.176;2022-10-20T12:11:29;13.00;12.00;7.00
26185;PMS7003;20067;48.764;9.176;2022-10-20T12:19:23;15.50;13.00;7.00
26185;PMS7003;20067;48.764;9.176;2022-10-20T12:24:41;13.50;13.25;9.00
26185;PMS7003;20067;48.764;9.176;2022-10-20T12:27:27;13.00;13.00;7.50
26185;PMS7003;20067;48.764;9.176;2022-10-20T12:32:51;12.25;12.25;7.75
26185;PMS7003;20067;48.764;9.176;2022-10-20T12:38:22;18.00;15.75;9.50
26185;PMS7003;20067;48.764;9.176;2022-10-20T12:40:49;16.00;15.50;8.00
26185;PMS7003;20067;48.764;9.176;2022-10-20T12:43:26;18.25;15.00;9.00
26185;PMS7003;20067;48.764;9.176;2022-10-20T12:45:58;16.00;13.75;7.75
26185;PMS7003;20067;48.764;9.176;2022-10-20T12:48:31;15.25;15.00;8.00
26185;PMS7003;20067;48.764;9.176;2022-10-20T12:51:05;14.50;13.25;7.00
26185;PMS7003;20067;48.764;9.176;2022-10-20T12:53:40;15.00;14.00;9.00
26185;PMS7003;20067;48.764;9.176;2022-10-20T12:56:07;13.00;12.00;7.25
26185;PMS7003;20067;48.764;9.176;2022-10-20T12:58:36;15.00;12.50;7.25
26185;PMS7003;20067;48.764;9.176;2022-10-20T13:01:22;15.75;14.50;8.25
26185;PMS7003;20067;48.764;9.176;2022-10-20T13:03:48;16.00;14.50;8.00
26185;PMS7003;20067;48.764;9.176;2022-10-20T13:09:10;15.75;14.00;7.00
26185;PMS7003;20067;48.764;9.176;2022-10-20T13:11:52;17.25;15.50;10.00
26185;PMS7003;20067;48.764;9.176;2022-10-20T13:17:17;15.50;15.00;9.00
26185;PMS7003;20067;48.764;9.176;2022-10-20T13:19:59;19.50;18.75;12.00
26185;PMS7003;20067;48.764;9.176;2022-10-20T13:22:43;15.25;15.25;10.25
26185;PMS7003;20067;48.764;9.176;2022-10-20T13:25:15;23.00;21.00;14.25
26185;PMS7003;20067;48.764;9.176;2022-10-20T13:27:42;19.25;18.75;10.25
26185;PMS7003;20067;48.764;9.176;2022-10-20T13:30:19;20.00;20.00;11.25
26185;PMS7003;20067;48.764;9.176;2022-10-20T13:32:49;21.00;20.00;11.00
26185;PMS7003;20067;48.764;9.176;2022-10-20T13:35:39;19.75;16.50;8.75
26185;PMS7003;20067;48.764;9.176;2022-10-20T13:38:14;20.50;18.75;11.75
26185;PMS7003;20067;48.764;9.176;2022-10-20T13:50:04;14.00;14.00;7.50
26185;PMS7003;20067;48.764;9.176;2022-10-20T13:52:36;17.00;15.25;8.25
26185;PMS7003;20067;48.764;9.176;2022-10-20T13:55:04;15.00;14.50;9.00
26185;PMS7003;20067;48.764;9.176;2022-10-20T13:57:32;15.25;15.25;8.75
26185;PMS7003;20067;48.764;9.176;2022-10-20T14:00:01;19.75;17.75;11.00
26185;PMS7003;20067;48.764;9.176;2022-10-20T14:02:50;19.25;16.75;10.00
26185;PMS7003;20067;48.764;9.176;2022-10-20T14:05:18;16.00;15.75;10.00
26185;PMS7003;20067;48.764;9.176;2022-10-20T14:07:46;20.75;16.25;9.00
26185;PMS7003;20067;48.764;9.176;2022-10-20T14:13:18;21.25;17.75;12.00
26185;PMS7003;20067;48.764;9.176;2022-10-20T14:15:47;18.50;17.50;9.50
26185;PMS7003;20067;48.764;9.176;2022-10-20T14:20:56;19.00;16.25;10.00
26185;PMS7003;20067;48.764;9.176;2022-10-20T14:23:27;15.25;14.25;8.50
26185;PMS7003;20067;48.764;9.176;2022-10-20T14:25:58;25.75;20.00;14.50
26185;PMS7003;20067;48.764;9.176;2022-10-20T14:28:26;22.50;20.25;11.00
26185;PMS7003;20067;48.764;9.176;2022-10-20T14:30:56;21.50;19.00;12.00
26185;PMS7003;20067;48.764;9.176;2022-10-20T14:33:23;15.50;14.75;9.25
26185;PMS7003;20067;48.764;9.176;2022-10-20T14:35:53;19.00;18.75;11.75
26185;PMS7003;20067;48.764;9.176;2022-10-20T14:40:53;20.50;20.50;12.00
26185;PMS7003;20067;48.764;9.176;2022-10-20T14:43:23;19.50;18.50;11.00
26185;PMS7003;20067;48.764;9.176;2022-10-20T14:46:10;17.00;16.00;10.00
26185;PMS7003;20067;48.764;9.176;2022-10-20T14:48:46;20.25;19.00;11.00
26185;PMS7003;20067;48.764;9.176;2022-10-20T14:56:46;22.00;16.75;11.00
26185;PMS7003;20067;48.764;9.176;2022-10-20T14:59:23;23.25;19.25;12.50
26185;PMS7003;20067;48.764;9.176;2022-10-20T15:01:57;21.25;20.00;13.75
26185;PMS7003;20067;48.764;9.176;2022-10-20T15:04:28;28.25;27.00;21.75
26185;PMS7003;20067;48.764;9.176;2022-10-20T15:07:11;33.00;30.00;22.75
26185;PMS7003;20067;48.764;9.176;2022-10-20T15:09:43;32.00;30.50;23.00
26185;PMS7003;20067;48.764;9.176;2022-10-20T15:12:15;34.25;30.75;24.00
26185;PMS7003;20067;48.764;9.176;2022-10-20T15:14:43;36.75;34.25;26.00
26185;PMS7003;20067;48.764;9.176;2022-10-20T15:19:58;33.00;29.00;22.25
26185;PMS7003;20067;48.764;9.176;2022-10-20T15:22:43;29.75;27.75;20.75
26185;PMS7003;20067;48.764;9.176;2022-10-20T15:25:09;32.00;32.00;23.00
26185;PMS7003;20067;48.764;9.176;2022-10-20T15:27:34;30.00;30.00;23.00
26185;PMS7003;20067;48.764;9.176;2022-10-20T15:30:04;34.00;33.50;25.00
26185;PMS7003;20067;48.764;9.176;2022-10-20T15:32:41;37.25;35.00;25.25
26185;PMS7003;20067;48.764;9.176;2022-10-20T15:35:10;28.00;26.75;21.75
26185;PMS7003;20067;48.764;9.176;2022-10-20T15:37:36;31.50;28.50;22.75
26185;PMS7003;20067;48.764;9.176;2022-10-20T15:40:02;34.00;31.25;23.50
26185;PMS7003;20067;48.764;9.176;2022-10-20T15:42:28;31.75;31.75;24.00
26185;PMS7003;20067;48.764;9.176;2022-10-20T15:44:54;41.50;37.25;27.00
26185;PMS7003;20067;48.764;9.176;2022-10-20T15:47:19;32.00;31.50;25.00
26185;PMS7003;20067;48.764;9.176;2022-10-20T15:49:45;42.50;38.50;27.50
26185;PMS7003;20067;48.764;9.176;2022-10-20T15:52:11;37.75;35.25;26.25
26185;PMS7003;20067;48.764;9.176;2022-10-20T15:54:37;35.25;33.00;25.50
26185;PMS7003;20067;48.764;9.176;2022-10-20T15:57:03;43.50;40.75;29.75
26185;PMS7003;20067;48.764;9.176;2022-10-20T15:59:28;40.75;39.50;29.00
26185;PMS7003;20067;48.764;9.176;2022-10-20T16:01:54;37.50;37.00;26.50
26185;PMS7003;20067;48.764;9.176;2022-10-20T16:04:20;39.50;36.75;27.00
26185;PMS7003;20067;48.764;9.176;2022-10-20T16:06:49;38.25;36.75;27.00
26185;PMS7003;20067;48.764;9.176;2022-10-20T16:09:21;34.00;32.75;24.75
26185;PMS7003;20067;48.764;9.176;2022-10-20T16:11:47;37.50;33.50;26.00
26185;PMS7003;20067;48.764;9.176;2022-10-20T16:14:13;45.00;41.67;30.33
26185;PMS7003;20067;48.764;9.176;2022-10-20T16:16:39;50.25;43.25;31.50
26185;PMS7003;20067;48.764;9.176;2022-10-20T16:19:06;49.67;44.00;34.00
26185;PMS7003;20067;48.764;9.176;2022-10-20T16:21:32;48.67;44.00;33.00
26185;PMS7003;20067;48.764;9.176;2022-10-20T16:23:58;47.67;42.00;32.00
26185;PMS7003;20067;48.764;9.176;2022-10-20T16:26:25;56.00;47.00;35.00
26185;PMS7003;20067;48.764;9.176;2022-10-20T16:28:51;51.33;45.00;33.33